This is the latest recevied weather packets stored in our database for station/object KC7RJK-2. If no packets are shown the sender has not sent any weather packets the latest 10 day(s).
| Time | Temp. | Humidity | Pressure | Rain* | Wind** | Luminosity | Snow |
|---|---|---|---|---|---|---|---|
| 1777681810 | 22.78° C | 59% | 1014.2 hPa | 0 mm | - | - | - |
| 1777681210 | 22.22° C | 61% | 1014.2 hPa | 0 mm | - | - | - |
| 1777680609 | 22.78° C | 58% | 1014.3 hPa | 0 mm | - | - | - |
| 1777680009 | 22.78° C | 57% | 1014.3 hPa | 0 mm | - | - | - |
| 1777679409 | 22.78° C | 57% | 1014.4 hPa | 0 mm | - | - | - |
| 1777678809 | 23.33° C | 56% | 1014.4 hPa | 0 mm | - | - | - |
| 1777678209 | 23.33° C | 54% | 1014.5 hPa | 0 mm | - | - | - |
| 1777677610 | 22.78° C | 57% | 1014.6 hPa | 0 mm | - | - | - |
| 1777677010 | 22.78° C | 55% | 1014.8 hPa | 0 mm | - | - | - |
| 1777676412 | 22.22° C | 57% | 1015 hPa | 0 mm | - | - | - |
| 1777675810 | 22.22° C | 55% | 1015 hPa | 0 mm | - | - | - |
| 1777675209 | 22.22° C | 59% | 1015.1 hPa | 0 mm | - | - | - |
| 1777674610 | 22.22° C | 56% | 1015.2 hPa | 0 mm | - | - | - |
| 1777674010 | 21.67° C | 61% | 1015.4 hPa | 0 mm | - | - | - |
| 1777673409 | 21.67° C | 58% | 1015.6 hPa | 0 mm | - | - | - |
| 1777672809 | 21.11° C | 62% | 1015.7 hPa | 0 mm | - | - | - |
| 1777672209 | 21.11° C | 60% | 1015.8 hPa | 0 mm | - | - | - |
| 1777671610 | 21.11° C | 61% | 1016 hPa | 0 mm | - | - | - |
| 1777671011 | 20.56° C | 63% | 1016 hPa | 0 mm | - | - | - |
| 1777670410 | 20.56° C | 62% | 1016.2 hPa | 0 mm | - | - | - |
| 1777669809 | 20° C | 65% | 1016.2 hPa | 0 mm | - | - | - |
| 1777668609 | 20° C | 64% | 1016.5 hPa | 0 mm | - | - | - |
| 1777668010 | 19.44° C | 67% | 1016.6 hPa | 0 mm | - | - | - |
| 1777667412 | 18.89° C | 67% | 1016.7 hPa | 0 mm | - | - | - |
| 1777666809 | 18.89° C | 65% | 1016.8 hPa | 0 mm | - | - | - |
* Rain latest hour (hover to see other rain measurements)
** Current wind speed in m/s (hover to see current wind gust speed)